Terminal Aerodrome Forecast
Issued by NWS

Home | Current Version | Previous Version | Graphics & Text | Print | Product List | Glossary On
Versions: 1 2 3 4 5 6 7 8 9 10 11 12 13 14 15
000
FTUS43 KMPX 281720
TAFAXN
TAF
KAXN 281720Z 2818/2918 17014G20KT P6SM SCT050
     FM290000 16012KT P6SM SCT030 BKN100
     FM290800 18010KT P6SM BKN060 PROB30 2908/2912 5SM -TSRA
      BKN050CB=

USA.gov is the U.S. government's official web portal to all federal, state and local government web resources and services.